Terminal Aerodrome Forecast
Issued by NWS

Home | Current Version | Previous Version | Text Only | Print | Product List | Glossary On
Versions: 1 2 3 4 5 6 7 8 9 10 11 12 13 14 15 16 17 18 19 20 21 22 23 24 25 26 27 28 29 30 31 32 33 34
000
FTUS41 KBOX 271137
TAFFMH
TAF
KFMH 271137Z 2712/2812 02028G46KT 1/4SM +SN FZFG BLSN OVC002
      WS020/01070KT
     FM271500 02027G45KT 1/2SM SN FZFG BLSN OVC003 WS020/01070KT
     FM272100 36023G43KT 1/2SM SN BLSN FZFG OVC005 WS020/34055KT
     FM272300 35020G40KT 3/4SM -SN BR OVC008 WS020/33050KT
     FM280000 35019G38KT 1SM -SN BR OVC008
     FM280300 34018G36KT 2SM -SN BR OVC008
     FM280500 33016G29KT P6SM OVC015
     FM280900 32013KT P6SM OVC015=

USA.gov is the U.S. government's official web portal to all federal, state and local government web resources and services.